KLYH

Lynchburg Regional / Preston Glenn Field Airport

Lynchburg, Virginia, USA
METAR KLYH 162154Z 30008KT 10SM FEW047 12/06 A2988 RMK AO2 SLP116 T01170061
Observed Flight Rules
Dec-16 @ 21:54 UTC (53 minutes ago) Visual Flight Rules
Wind Visibility Clouds
300° at 8 knots 10 miles
  • Few at 4,700' AGL
Temperatures Readings
Current 12°C / 54°F
Dewpoint 6°C / 43°F
Humidity 67%
Altimeter 29.88" Hg
Pressure 1011.6 hPa
Elevation 295
METAR KLYH 162154Z 30008KT 10SM FEW047 12/06 A2988 RMK AO2 SLP116 T01170061
Observed Flight Rules
Dec-16 @ 21:54 UTC
(53 minutes ago)
VFR
Wind Visibility
300° at 8 knots 10 miles
Clouds
  • Few at 4,700' AGL
Temperature Dewpoint
12°C / 54°F 6°C / 43°F
Humidity Altimeter Pressure
67% 29.88" Hg 1011.6 hPa